Time;durP1;ratioP1;P1;durP2;ratioP2;P2;SDS_P1;SDS_P2;PMS_P1;PMS_P2;Temp;Humidity;BMP_temperature;BMP_pressure;BME280_temperature;BME280_humidity;BME280_pressure;Samples;Min_cycle;Max_cycle;Signal;HPM_P1;HPM_P2
2021/07/09 00:04:34;;;;;;;14.97;11.03;;;;;16.00;101720.00;;;;10460083;28;20197;-78
2021/07/09 00:09:36;;;;;;;16.07;11.13;;;;;16.00;101712.00;;;;10485491;28;20217;-77
2021/07/09 00:14:38;;;;;;;21.77;11.33;;;;;16.00;101709.00;;;;10467942;28;20243;-78
2021/07/09 00:19:40;;;;;;;16.67;11.37;;;;;16.00;101703.00;;;;10450161;28;20255;-78
2021/07/09 00:24:42;;;;;;;13.47;10.57;;;;;16.10;101704.00;;;;10454736;28;20251;-78
2021/07/09 00:29:44;;;;;;;13.93;9.97;;;;;16.10;101715.00;;;;10467904;28;20190;-78
2021/07/09 00:34:46;;;;;;;17.70;11.53;;;;;16.10;101718.00;;;;10446330;28;20628;-78
2021/07/09 00:39:48;;;;;;;17.80;11.20;;;;;16.20;101711.00;;;;10419352;28;20209;-78
2021/07/09 00:44:50;;;;;;;16.27;11.07;;;;;16.30;101709.00;;;;10420093;28;20210;-78
2021/07/09 00:49:52;;;;;;;16.63;10.83;;;;;16.30;101703.00;;;;10446998;28;20212;-78
2021/07/09 00:54:54;;;;;;;13.87;10.57;;;;;16.30;101712.00;;;;10468154;28;20194;-78
2021/07/09 00:59:56;;;;;;;12.53;9.80;;;;;16.30;101708.00;;;;10450887;28;20213;-79
2021/07/09 01:04:58;;;;;;;14.80;10.80;;;;;16.20;101712.00;;;;10420893;28;20206;-78
2021/07/09 01:09:59;;;;;;;15.20;9.77;;;;;16.20;101708.00;;;;10491905;28;20206;-78
2021/07/09 01:15:03;;;;;;;18.43;10.13;;;;;16.10;101712.00;;;;10475851;28;20247;-78
2021/07/09 01:20:10;;;;;;;18.67;10.77;;;;;16.10;101709.00;;;;10458975;28;20196;-78
2021/07/09 01:25:18;;;;;;;17.47;11.40;;;;;16.10;101705.00;;;;10451346;28;20194;-78
2021/07/09 01:30:22;;;;;;;13.57;10.13;;;;;16.10;101714.00;;;;10433812;28;20206;-78
2021/07/09 01:35:25;;;;;;;15.37;10.27;;;;;16.10;101713.00;;;;10450702;28;20213;-77
2021/07/09 01:40:28;;;;;;;16.63;10.70;;;;;16.10;101710.00;;;;10417022;28;20194;-78
2021/07/09 01:45:31;;;;;;;20.13;11.57;;;;;16.10;101704.00;;;;10433528;28;20213;-78
2021/07/09 01:50:33;;;;;;;18.83;11.47;;;;;16.00;101698.00;;;;10416047;28;20236;-78
2021/07/09 01:55:35;;;;;;;18.47;12.33;;;;;15.90;101690.00;;;;10446066;28;20530;-78
2021/07/09 02:00:37;;;;;;;19.47;11.70;;;;;15.80;101697.00;;;;10459039;28;20422;-79
2021/07/09 02:05:39;;;;;;;22.80;12.70;;;;;15.60;101688.00;;;;10446330;28;20221;-79
2021/07/09 02:10:43;;;;;;;22.70;13.20;;;;;15.40;101688.00;;;;10462106;28;20210;-78
2021/07/09 02:15:47;;;;;;;19.03;11.57;;;;;15.30;101683.00;;;;10465692;28;20251;-78
2021/07/09 02:20:49;;;;;;;18.87;12.07;;;;;15.10;101685.00;;;;10430720;28;20201;-78
2021/07/09 02:25:51;;;;;;;25.03;12.90;;;;;15.00;101687.00;;;;10436291;28;20219;-78
2021/07/09 02:30:53;;;;;;;17.30;12.63;;;;;14.90;101680.00;;;;10462328;28;20297;-78
2021/07/09 02:35:55;;;;;;;21.87;13.97;;;;;14.90;101693.00;;;;10465443;28;20228;-77
2021/07/09 02:40:56;;;;;;;20.97;13.83;;;;;14.80;101690.00;;;;10479282;28;20209;-78
2021/07/09 02:45:58;;;;;;;18.70;12.60;;;;;14.70;101693.00;;;;10458826;28;20598;-78
2021/07/09 02:51:01;;;;;;;22.27;13.37;;;;;14.50;101688.00;;;;10454353;28;20213;-78
2021/07/09 02:56:03;;;;;;;23.07;13.60;;;;;14.50;101697.00;;;;10486709;28;20205;-77
2021/07/09 03:01:05;;;;;;;19.27;12.97;;;;;14.50;101690.00;;;;10456102;28;20251;-77
2021/07/09 03:06:07;;;;;;;27.13;15.30;;;;;14.40;101688.00;;;;10476862;28;20204;-78
2021/07/09 03:11:09;;;;;;;25.93;16.93;;;;;14.40;101695.00;;;;10502305;28;20216;-77
2021/07/09 03:16:11;;;;;;;24.73;15.13;;;;;14.50;101695.00;;;;10471107;28;20223;-79
2021/07/09 03:21:13;;;;;;;28.63;19.87;;;;;14.70;101693.00;;;;10472513;28;20203;-78
2021/07/09 03:26:15;;;;;;;31.83;19.50;;;;;14.90;101687.00;;;;10496075;28;20197;-78
2021/07/09 03:31:17;;;;;;;29.40;20.83;;;;;15.00;101692.00;;;;10511571;28;20205;-78
2021/07/09 03:36:20;;;;;;;32.10;20.90;;;;;15.00;101700.00;;;;10479696;28;20219;-78
2021/07/09 03:41:23;;;;;;;29.47;20.93;;;;;15.00;101694.00;;;;10476776;28;20197;-78
2021/07/09 03:46:24;;;;;;;37.73;24.37;;;;;15.00;101700.00;;;;10472653;28;20201;-78
2021/07/09 03:51:28;;;;;;;49.37;27.67;;;;;15.10;101712.00;;;;10502404;28;20304;-78
2021/07/09 03:56:29;;;;;;;43.27;24.40;;;;;15.20;101702.00;;;;10462344;28;20205;-78
2021/07/09 04:01:31;;;;;;;41.30;25.33;;;;;15.30;101704.00;;;;10444302;28;20205;-78
2021/07/09 04:06:33;;;;;;;45.37;25.63;;;;;15.30;101713.00;;;;10436754;28;20288;-78
2021/07/09 04:11:35;;;;;;;32.77;20.97;;;;;15.40;101705.00;;;;10484056;28;20217;-77
2021/07/09 04:16:37;;;;;;;30.63;18.13;;;;;15.50;101712.00;;;;10469501;28;20189;-78
2021/07/09 04:21:39;;;;;;;27.73;18.27;;;;;15.60;101711.00;;;;10479294;28;20192;-78
2021/07/09 04:26:42;;;;;;;29.23;16.87;;;;;15.60;101710.00;;;;10482166;28;20201;-78
2021/07/09 04:31:44;;;;;;;23.17;15.53;;;;;15.70;101714.00;;;;10477018;28;20224;-78
2021/07/09 04:36:45;;;;;;;24.20;16.60;;;;;15.80;101724.00;;;;10501853;28;20205;-78
2021/07/09 04:41:47;;;;;;;23.90;15.80;;;;;15.80;101720.00;;;;10500841;28;20778;-79
2021/07/09 04:46:49;;;;;;;25.97;16.07;;;;;15.90;101731.00;;;;10488641;28;20193;-78
2021/07/09 04:51:53;;;;;;;24.33;15.93;;;;;16.10;101738.00;;;;10496924;28;20219;-78
2021/07/09 04:56:54;;;;;;;22.43;14.13;;;;;16.10;101748.00;;;;10530697;28;20201;-78
2021/07/09 05:01:56;;;;;;;19.97;13.87;;;;;16.10;101735.00;;;;10500876;28;20194;-78
2021/07/09 05:06:58;;;;;;;19.53;13.57;;;;;16.40;101728.00;;;;10446215;28;20251;-78
2021/07/09 05:12:01;;;;;;;18.50;13.20;;;;;16.70;101730.00;;;;10505223;28;20209;-78
2021/07/09 05:17:03;;;;;;;20.45;13.32;;;;;17.00;101736.00;;;;10524084;28;20227;-78
2021/07/09 05:22:06;;;;;;;18.00;13.63;;;;;17.40;101741.00;;;;10503055;28;20217;-78
2021/07/09 05:27:08;;;;;;;18.30;11.73;;;;;17.60;101753.00;;;;10498279;28;20236;-78
2021/07/09 05:32:10;;;;;;;17.85;11.18;;;;;17.60;101759.00;;;;10484107;28;20225;-79
2021/07/09 05:37:12;;;;;;;19.98;10.82;;;;;17.50;101762.00;;;;10534386;28;20197;-78
2021/07/09 05:42:14;;;;;;;19.08;10.60;;;;;17.60;101768.00;;;;10502782;28;20196;-78
2021/07/09 05:47:16;;;;;;;15.43;9.77;;;;;17.80;101778.00;;;;10541931;28;20283;-78
2021/07/09 05:52:18;;;;;;;16.35;9.43;;;;;18.20;101790.00;;;;10469170;28;20545;-78
2021/07/09 05:57:20;;;;;;;14.55;9.75;;;;;18.80;101796.00;;;;10515488;28;20199;-78
2021/07/09 06:02:22;;;;;;;14.55;9.35;;;;;18.90;101793.00;;;;10482639;28;20679;-78
2021/07/09 06:07:24;;;;;;;13.07;10.35;;;;;18.80;101804.00;;;;10469651;28;20234;-78
2021/07/09 06:12:26;;;;;;;15.77;9.98;;;;;19.30;101813.00;;;;10488247;28;20788;-78
2021/07/09 06:17:28;;;;;;;17.60;9.35;;;;;19.40;101810.00;;;;10507074;28;20242;-78
2021/07/09 06:22:30;;;;;;;13.00;9.27;;;;;19.90;101804.00;;;;10508427;28;20193;-78
2021/07/09 06:27:31;;;;;;;14.15;9.63;;;;;20.10;101800.00;;;;10481473;28;20205;-78
2021/07/09 06:32:34;;;;;;;14.90;10.02;;;;;20.40;101803.00;;;;10479556;28;20244;-78
2021/07/09 06:37:37;;;;;;;16.77;10.43;;;;;20.30;101802.00;;;;10484318;28;20546;-78
2021/07/09 06:42:39;;;;;;;14.05;9.68;;;;;20.00;101813.00;;;;10480207;28;20201;-79
2021/07/09 06:47:41;;;;;;;15.55;10.70;;;;;20.30;101806.00;;;;10465224;28;20201;-78
2021/07/09 06:52:44;;;;;;;11.95;9.63;;;;;21.00;101805.00;;;;10508903;28;20208;-79
2021/07/09 06:57:47;;;;;;;18.65;8.82;;;;;22.10;101797.00;;;;10510857;28;20196;-78
2021/07/09 07:02:49;;;;;;;12.88;8.65;;;;;22.50;101804.00;;;;10487065;28;20308;-79
2021/07/09 07:07:51;;;;;;;11.93;8.80;;;;;23.10;101794.00;;;;10475653;28;20296;-78
2021/07/09 07:12:56;;;;;;;14.15;8.07;;;;;24.60;101793.00;;;;10466299;28;20350;-78
2021/07/09 07:17:58;;;;;;;11.75;7.93;;;;;25.40;101787.00;;;;10453583;28;20544;-78
2021/07/09 07:23:00;;;;;;;8.48;6.35;;;;;26.30;101792.00;;;;10495812;28;20229;-78
2021/07/09 07:28:03;;;;;;;13.82;7.53;;;;;25.90;101790.00;;;;10486696;28;20200;-79
2021/07/09 07:33:05;;;;;;;9.60;7.38;;;;;25.00;101784.00;;;;10505160;28;20233;-79
2021/07/09 07:38:08;;;;;;;7.25;6.28;;;;;24.80;101787.00;;;;10488364;28;20205;-78
2021/07/09 07:43:09;;;;;;;7.43;6.22;;;;;24.50;101776.00;;;;10505161;28;20235;-78
2021/07/09 07:48:11;;;;;;;9.55;6.68;;;;;25.00;101761.00;;;;10484704;28;20201;-79
2021/07/09 07:53:13;;;;;;;9.52;5.75;;;;;25.70;101769.00;;;;10484636;28;20219;-78
2021/07/09 07:58:15;;;;;;;11.60;7.00;;;;;25.80;101761.00;;;;10470295;28;21015;-79
2021/07/09 08:03:17;;;;;;;9.02;6.55;;;;;26.20;101759.00;;;;10492755;28;20653;-79
2021/07/09 08:08:19;;;;;;;7.70;5.40;;;;;25.30;101770.00;;;;10475134;28;20197;-78
2021/07/09 08:13:21;;;;;;;11.05;6.47;;;;;25.10;101770.00;;;;10491097;28;20210;-79
2021/07/09 08:18:23;;;;;;;9.27;6.35;;;;;25.80;101758.00;;;;10451860;28;20633;-78
2021/07/09 08:23:26;;;;;;;7.45;6.35;;;;;25.10;101763.00;;;;10447219;28;20204;-79
2021/07/09 08:28:28;;;;;;;9.25;6.75;;;;;24.60;101764.00;;;;10537869;28;20193;-79
2021/07/09 08:33:30;;;;;;;11.05;7.72;;;;;24.00;101760.00;;;;10481093;28;20232;-79
2021/07/09 08:38:32;;;;;;;9.70;7.75;;;;;23.70;101757.00;;;;10474310;28;20207;-79
2021/07/09 08:43:34;;;;;;;13.20;9.27;;;;;24.30;101767.00;;;;10509829;28;20204;-79
2021/07/09 08:48:37;;;;;;;16.55;8.77;;;;;25.40;101749.00;;;;10460392;28;20198;-78
2021/07/09 08:53:39;;;;;;;11.13;9.25;;;;;27.60;101762.00;;;;10478380;28;20208;-79
2021/07/09 08:58:41;;;;;;;11.05;9.88;;;;;27.40;101760.00;;;;10479483;28;20261;-79
2021/07/09 09:03:43;;;;;;;12.15;9.85;;;;;26.20;101754.00;;;;10467292;28;20297;-79
2021/07/09 09:08:49;;;;;;;10.57;9.48;;;;;26.00;101746.00;;;;10470626;28;20190;-79
2021/07/09 09:13:51;;;;;;;9.57;7.40;;;;;27.30;101749.00;;;;10511254;28;20201;-79
2021/07/09 09:18:57;;;;;;;7.00;6.30;;;;;28.70;101746.00;;;;10510745;28;20200;-79
2021/07/09 09:24:01;;;;;;;10.18;6.97;;;;;29.20;101755.00;;;;10443237;28;20545;-79
2021/07/09 09:29:26;;;;;;;10.27;6.97;;;;;27.70;101752.00;;;;10451475;28;20198;-79
2021/07/09 09:34:49;;;;;;;9.95;7.10;;;;;27.00;101763.00;;;;10487295;28;20221;-79
2021/07/09 09:39:51;;;;;;;9.88;7.22;;;;;25.80;101764.00;;;;10406155;28;20858;-79
2021/07/09 09:45:01;;;;;;;6.80;5.57;;;;;26.50;101749.00;;;;10438026;28;20205;-79
2021/07/09 09:50:06;;;;;;;5.95;5.35;;;;;27.30;101747.00;;;;10447859;28;20277;-80
2021/07/09 09:55:15;;;;;;;7.30;5.40;;;;;28.20;101742.00;;;;10460598;28;20213;-80
2021/07/09 10:00:20;;;;;;;5.55;5.05;;;;;27.90;101739.00;;;;10467899;28;20206;-79
2021/07/09 10:05:22;;;;;;;6.72;4.95;;;;;28.10;101733.00;;;;10449976;28;20209;-78
2021/07/09 10:10:24;;;;;;;5.20;4.57;;;;;28.10;101738.00;;;;10439937;28;20197;-79
2021/07/09 10:15:35;;;;;;;6.35;5.55;;;;;27.70;101734.00;;;;10433376;28;20210;-79
2021/07/09 10:20:37;;;;;;;10.02;7.13;;;;;27.00;101734.00;;;;10437858;28;20553;-78
2021/07/09 10:25:40;;;;;;;7.90;7.10;;;;;26.50;101728.00;;;;10464424;28;20782;-79
2021/07/09 10:30:43;;;;;;;7.70;6.90;;;;;26.50;101731.00;;;;10438678;28;20205;-79
2021/07/09 10:35:46;;;;;;;8.25;7.20;;;;;26.30;101738.00;;;;10453098;28;20213;-79
2021/07/09 10:40:49;;;;;;;8.77;7.88;;;;;26.00;101731.00;;;;10428155;28;20206;-79
2021/07/09 10:46:05;;;;;;;10.85;8.98;;;;;25.50;101733.00;;;;10453843;28;20240;-79
2021/07/09 10:51:10;;;;;;;8.25;7.30;;;;;25.80;101731.00;;;;10472024;28;20215;-79
2021/07/09 10:56:14;;;;;;;7.60;6.47;;;;;25.90;101735.00;;;;10484548;28;20242;-79
2021/07/09 11:01:28;;;;;;;8.07;6.25;;;;;26.20;101734.00;;;;10445269;28;20236;-79
2021/07/09 11:06:31;;;;;;;11.52;6.63;;;;;26.30;101742.00;;;;10421399;28;20225;-79
2021/07/09 11:11:45;;;;;;;7.72;6.63;;;;;25.50;101740.00;;;;10437214;28;20678;-79
2021/07/09 11:16:59;;;;;;;17.70;7.80;;;;;25.30;101747.00;;;;10412702;28;20274;-79
2021/07/09 11:22:08;;;;;;;13.65;7.40;;;;;25.00;101744.00;;;;10396665;28;20601;-79
2021/07/09 11:27:15;;;;;;;15.32;6.90;;;;;25.40;101739.00;;;;10428997;28;20535;-79
2021/07/09 11:32:23;;;;;;;15.52;8.32;;;;;25.20;101742.00;;;;10443281;28;20218;-79
2021/07/09 11:37:32;;;;;;;10.98;8.10;;;;;25.10;101740.00;;;;10438279;28;20296;-79
2021/07/09 11:42:39;;;;;;;10.30;7.95;;;;;25.10;101745.00;;;;10448491;28;20203;-79
2021/07/09 11:47:42;;;;;;;10.02;7.60;;;;;25.10;101743.00;;;;10457869;28;20193;-79
2021/07/09 11:52:50;;;;;;;9.25;8.35;;;;;25.70;101736.00;;;;10459518;28;20237;-79
2021/07/09 11:57:52;;;;;;;9.98;7.68;;;;;26.30;101743.00;;;;10464003;28;20198;-79
2021/07/09 12:02:54;;;;;;;8.90;7.97;;;;;26.50;101746.00;;;;10403245;28;20639;-79
2021/07/09 12:07:57;;;;;;;10.68;8.57;;;;;26.30;101749.00;;;;10459627;28;20194;-79
2021/07/09 12:13:02;;;;;;;11.77;9.50;;;;;26.10;101744.00;;;;10427272;28;20218;-79
2021/07/09 12:18:05;;;;;;;9.45;8.55;;;;;26.50;101750.00;;;;10433437;28;20613;-79
2021/07/09 12:23:09;;;;;;;12.63;9.38;;;;;26.30;101753.00;;;;10445776;28;20202;-80
2021/07/09 12:28:14;;;;;;;10.32;8.25;;;;;26.30;101741.00;;;;10462721;28;20198;-78
2021/07/09 12:33:25;;;;;;;9.77;7.80;;;;;26.50;101737.00;;;;10460813;28;20225;-78
2021/07/09 12:38:32;;;;;;;9.27;8.13;;;;;26.80;101729.00;;;;10473620;28;20697;-79
2021/07/09 12:43:45;;;;;;;9.43;7.75;;;;;27.60;101725.00;;;;10469104;28;20205;-79
2021/07/09 12:49:06;;;;;;;11.13;7.78;;;;;27.70;101719.00;;;;10454720;28;20201;-79
2021/07/09 12:54:13;;;;;;;10.50;8.38;;;;;27.90;101723.00;;;;10478885;28;20206;-79
2021/07/09 12:59:25;;;;;;;9.98;8.30;;;;;26.90;101714.00;;;;10491338;28;20225;-79
2021/07/09 13:04:31;;;;;;;10.15;8.43;;;;;26.50;101714.00;;;;10528135;28;20242;-79
2021/07/09 13:09:32;;;;;;;13.90;8.13;;;;;27.10;101720.00;;;;10475336;28;20211;-79
2021/07/09 13:14:36;;;;;;;10.18;7.40;;;;;26.70;101711.00;;;;10501037;28;20209;-79
2021/07/09 13:19:38;;;;;;;8.30;7.38;;;;;27.50;101698.00;;;;10507411;28;21002;-79
2021/07/09 13:24:41;;;;;;;10.10;7.75;;;;;27.60;101703.00;;;;10504747;28;20188;-79
2021/07/09 13:29:44;;;;;;;8.38;7.28;;;;;27.80;101683.00;;;;10523507;28;20213;-79
2021/07/09 13:34:46;;;;;;;11.30;7.18;;;;;27.70;101679.00;;;;10467106;28;20226;-79
2021/07/09 13:39:47;;;;;;;11.57;7.07;;;;;27.90;101682.00;;;;10500316;28;20198;-78
2021/07/09 13:44:49;;;;;;;10.50;7.40;;;;;28.30;101678.00;;;;10497781;28;20189;-79
2021/07/09 13:49:51;;;;;;;9.13;6.90;;;;;29.10;101661.00;;;;10499783;28;20232;-79
2021/07/09 13:54:53;;;;;;;7.80;7.00;;;;;30.10;101675.00;;;;10480317;28;20209;-79
2021/07/09 13:59:56;;;;;;;8.15;7.10;;;;;32.10;101666.00;;;;10470301;28;20232;-80
2021/07/09 14:04:57;;;;;;;9.63;7.22;;;;;33.10;101663.00;;;;10470323;28;20243;-79
2021/07/09 14:09:59;;;;;;;7.35;6.45;;;;;34.30;101647.00;;;;10514201;28;20267;-80
2021/07/09 14:15:05;;;;;;;10.38;6.32;;;;;34.60;101660.00;;;;10455838;28;20384;-80
2021/07/09 14:20:07;;;;;;;10.32;6.97;;;;;34.70;101643.00;;;;10476800;28;20193;-80
2021/07/09 14:25:10;;;;;;;8.48;6.40;;;;;32.60;101640.00;;;;10478498;28;20193;-79
2021/07/09 14:30:13;;;;;;;9.30;6.82;;;;;30.90;101626.00;;;;10479432;28;20200;-79
2021/07/09 14:35:18;;;;;;;7.82;6.82;;;;;30.00;101645.00;;;;10464649;28;20221;-79
2021/07/09 14:40:20;;;;;;;7.40;6.63;;;;;30.70;101619.00;;;;10471680;28;20209;-79
2021/07/09 14:45:29;;;;;;;8.00;6.82;;;;;35.70;101609.00;;;;10471691;28;20189;-80
2021/07/09 14:50:31;;;;;;;6.72;6.03;;;;;36.80;101612.00;;;;10487137;28;20203;-79
2021/07/09 14:55:33;;;;;;;7.22;6.55;;;;;38.30;101605.00;;;;10504081;28;20910;-80
2021/07/09 15:00:35;;;;;;;9.85;6.50;;;;;39.50;101602.00;;;;10480821;28;20209;-80
2021/07/09 15:05:36;;;;;;;5.85;5.15;;;;;40.10;101603.00;;;;10524617;28;20652;-80
2021/07/09 15:10:38;;;;;;;5.80;4.57;;;;;39.70;101602.00;;;;10499643;28;20288;-80
2021/07/09 15:15:40;;;;;;;5.85;5.20;;;;;40.00;101588.00;;;;10496206;28;20224;-79
2021/07/09 15:20:42;;;;;;;8.27;4.95;;;;;39.60;101613.00;;;;10497025;28;20242;-80
2021/07/09 15:25:44;;;;;;;5.57;4.88;;;;;31.80;101597.00;;;;10489066;28;20209;-79
2021/07/09 15:30:47;;;;;;;5.93;4.40;;;;;34.70;101565.00;;;;10488647;28;20190;-79
2021/07/09 15:35:49;;;;;;;8.30;4.78;;;;;36.90;101564.00;;;;10495413;28;20273;-79
2021/07/09 15:40:51;;;;;;;4.68;4.20;;;;;34.00;101552.00;;;;10472946;28;20215;-79
2021/07/09 15:45:53;;;;;;;5.32;4.30;;;;;34.20;101576.00;;;;10508122;28;20548;-79
2021/07/09 15:50:55;;;;;;;4.70;4.28;;;;;36.40;101538.00;;;;10454430;28;20209;-80
2021/07/09 15:55:57;;;;;;;5.50;4.50;;;;;30.70;101556.00;;;;10488801;28;20209;-79
2021/07/09 16:01:00;;;;;;;7.03;4.75;;;;;28.50;101554.00;;;;10510110;28;20197;-79
2021/07/09 16:06:03;;;;;;;6.45;5.72;;;;;27.60;101551.00;;;;10473814;28;20197;-79
2021/07/09 16:11:05;;;;;;;7.03;4.68;;;;;26.80;101543.00;;;;10497165;28;20201;-79
2021/07/09 16:16:07;;;;;;;4.60;4.20;;;;;25.80;101544.00;;;;10478388;28;20204;-79
2021/07/09 16:21:22;;;;;;;7.32;4.95;;;;;25.20;101536.00;;;;10511032;28;20255;-79
2021/07/09 16:26:24;;;;;;;4.18;3.83;;;;;25.30;101530.00;;;;10482261;28;20576;-79
2021/07/09 16:31:28;;;;;;;6.43;4.63;;;;;25.00;101524.00;;;;10451717;28;20193;-79
2021/07/09 16:36:30;;;;;;;6.70;4.07;;;;;24.80;101524.00;;;;10514271;28;20598;-79
2021/07/09 16:41:32;;;;;;;4.72;4.20;;;;;24.70;101518.00;;;;10512373;28;20209;-78
2021/07/09 16:46:34;;;;;;;8.30;3.78;;;;;24.80;101516.00;;;;10504038;28;20250;-78
2021/07/09 16:51:37;;;;;;;6.22;3.95;;;;;24.50;101511.00;;;;10479604;28;20644;-79
2021/07/09 16:56:38;;;;;;;5.70;4.05;;;;;24.20;101507.00;;;;10490726;28;20216;-79
2021/07/09 17:01:40;;;;;;;6.82;4.18;;;;;24.50;101497.00;;;;10502109;28;20205;-78
2021/07/09 17:06:42;;;;;;;5.75;4.70;;;;;24.50;101509.00;;;;10504010;28;20553;-78
2021/07/09 17:11:45;;;;;;;6.22;3.60;;;;;24.40;101498.00;;;;10516927;28;20204;-79
2021/07/09 17:16:46;;;;;;;7.40;4.13;;;;;24.30;101498.00;;;;10507947;28;20213;-79
2021/07/09 17:21:49;;;;;;;4.43;3.75;;;;;24.60;101491.00;;;;10476683;28;20212;-79
2021/07/09 17:27:02;;;;;;;4.57;3.33;;;;;24.50;101494.00;;;;10524033;28;20235;-78
2021/07/09 17:32:05;;;;;;;4.22;3.60;;;;;24.50;101493.00;;;;10492337;28;20240;-79
2021/07/09 17:37:07;;;;;;;3.28;2.97;;;;;24.30;101501.00;;;;10468722;28;20282;-78
2021/07/09 17:42:09;;;;;;;6.65;4.07;;;;;24.10;101503.00;;;;10501393;28;20667;-78
2021/07/09 17:47:11;;;;;;;5.20;3.30;;;;;23.50;101506.00;;;;10505804;28;20219;-78
2021/07/09 17:52:13;;;;;;;5.28;3.80;;;;;23.10;101503.00;;;;10475379;28;20246;-79
2021/07/09 17:57:15;;;;;;;4.35;3.83;;;;;23.30;101500.00;;;;10460837;28;20662;-78
2021/07/09 18:02:17;;;;;;;4.68;3.78;;;;;23.30;101502.00;;;;10495613;28;20197;-79
2021/07/09 18:07:19;;;;;;;6.70;3.70;;;;;23.40;101503.00;;;;10488783;28;20221;-78
2021/07/09 18:12:21;;;;;;;4.63;3.95;;;;;23.20;101508.00;;;;10512423;28;20270;-78
2021/07/09 18:17:23;;;;;;;5.35;3.53;;;;;23.00;101505.00;;;;10490775;28;20197;-79
2021/07/09 18:22:26;;;;;;;6.32;3.95;;;;;22.70;101500.00;;;;10487722;28;20714;-78
2021/07/09 18:27:27;;;;;;;4.47;3.70;;;;;22.40;101507.00;;;;10480811;28;20202;-78
2021/07/09 18:32:29;;;;;;;4.22;3.45;;;;;22.10;101497.00;;;;10526668;28;20223;-78
2021/07/09 18:37:31;;;;;;;5.90;3.70;;;;;21.90;101495.00;;;;10500704;28;20190;-78
2021/07/09 18:42:33;;;;;;;5.55;3.90;;;;;21.80;101496.00;;;;10456905;28;20232;-78
2021/07/09 18:47:36;;;;;;;5.57;3.88;;;;;21.80;101497.00;;;;10482348;28;20734;-78
2021/07/09 18:52:39;;;;;;;6.53;4.10;;;;;21.60;101498.00;;;;10489069;28;20205;-78
2021/07/09 18:57:43;;;;;;;5.85;3.95;;;;;21.40;101501.00;;;;10512779;28;20193;-78
2021/07/09 19:02:46;;;;;;;6.45;4.05;;;;;21.20;101504.00;;;;10477438;28;20602;-78
2021/07/09 19:07:49;;;;;;;5.00;4.28;;;;;21.00;101503.00;;;;10513496;28;20279;-78
2021/07/09 19:12:51;;;;;;;5.97;4.38;;;;;20.90;101501.00;;;;10497761;28;20212;-78
2021/07/09 19:17:55;;;;;;;8.15;5.75;;;;;20.80;101501.00;;;;10497148;28;20675;-78
2021/07/09 19:22:58;;;;;;;7.20;4.80;;;;;20.60;101508.00;;;;10488691;28;20659;-78
2021/07/09 19:28:01;;;;;;;5.07;4.43;;;;;20.50;101508.00;;;;10485450;28;20193;-78
2021/07/09 19:33:04;;;;;;;9.18;4.63;;;;;20.50;101503.00;;;;10502409;28;20573;-78
2021/07/09 19:38:06;;;;;;;8.13;4.95;;;;;20.30;101514.00;;;;10487659;28;20201;-78
2021/07/09 19:43:09;;;;;;;6.57;4.80;;;;;20.20;101527.00;;;;10474994;28;20557;-78
2021/07/09 19:48:11;;;;;;;10.43;5.68;;;;;20.00;101526.00;;;;10455490;28;20197;-78
2021/07/09 19:53:13;;;;;;;8.70;6.10;;;;;19.90;101530.00;;;;10479673;28;20219;-78
2021/07/09 19:58:15;;;;;;;10.05;8.07;;;;;19.70;101527.00;;;;10510972;28;20193;-78
2021/07/09 20:03:18;;;;;;;7.97;6.85;;;;;19.50;101529.00;;;;10547628;28;20544;-78
2021/07/09 20:08:20;;;;;;;12.90;8.15;;;;;19.40;101537.00;;;;10492820;28;20207;-77
2021/07/09 20:13:22;;;;;;;9.65;7.72;;;;;19.20;101532.00;;;;10485440;28;20212;-78
2021/07/09 20:18:23;;;;;;;10.95;7.95;;;;;19.00;101548.00;;;;10494970;28;20189;-78
2021/07/09 20:23:26;;;;;;;10.82;7.90;;;;;18.90;101550.00;;;;10467735;28;20184;-78
2021/07/09 20:28:28;;;;;;;10.23;7.45;;;;;18.80;101548.00;;;;10438703;28;20197;-78
2021/07/09 20:33:30;;;;;;;10.13;8.65;;;;;18.70;101552.00;;;;10441387;28;20241;-78
2021/07/09 20:38:34;;;;;;;10.13;8.35;;;;;18.60;101550.00;;;;10430122;28;20620;-78
2021/07/09 20:43:36;;;;;;;12.63;8.60;;;;;18.60;101554.00;;;;10447344;28;20293;-78
2021/07/09 20:48:48;;;;;;;11.48;8.85;;;;;18.50;101547.00;;;;10487222;28;20272;-78
2021/07/09 20:53:52;;;;;;;13.88;8.85;;;;;18.40;101542.00;;;;10442380;28;20218;-78
2021/07/09 20:58:54;;;;;;;11.00;8.50;;;;;18.30;101543.00;;;;10420349;28;20871;-78
2021/07/09 21:03:56;;;;;;;13.25;9.38;;;;;18.20;101534.00;;;;10470031;28;20182;-78
2021/07/09 21:08:57;;;;;;;12.10;9.00;;;;;18.10;101536.00;;;;10470687;28;20201;-78
2021/07/09 21:13:59;;;;;;;11.73;9.07;;;;;18.00;101529.00;;;;10457616;28;20202;-78
2021/07/09 21:19:02;;;;;;;12.88;9.38;;;;;18.00;101538.00;;;;10451219;28;20719;-78
2021/07/09 21:24:04;;;;;;;13.27;10.60;;;;;17.90;101535.00;;;;10469730;28;20645;-79
2021/07/09 21:29:06;;;;;;;14.18;10.68;;;;;17.90;101542.00;;;;10494132;28;20205;-78
2021/07/09 21:34:07;;;;;;;16.33;10.80;;;;;18.00;101548.00;;;;10459596;28;20210;-78
2021/07/09 21:39:09;;;;;;;14.82;10.77;;;;;18.00;101539.00;;;;10435711;28;20203;-78
2021/07/09 21:44:11;;;;;;;15.07;10.45;;;;;17.90;101542.00;;;;10418462;28;20202;-78
2021/07/09 21:49:13;;;;;;;13.52;10.60;;;;;17.80;101540.00;;;;10451516;28;20198;-77
2021/07/09 21:54:15;;;;;;;15.70;11.15;;;;;17.70;101541.00;;;;10452870;28;20571;-78
2021/07/09 21:59:17;;;;;;;12.65;10.43;;;;;17.60;101539.00;;;;10491870;28;20182;-78
2021/07/09 22:04:19;;;;;;;16.10;10.77;;;;;17.60;101536.00;;;;10442613;28;20220;-78
2021/07/09 22:09:21;;;;;;;15.30;11.03;;;;;17.60;101543.00;;;;10491343;28;20231;-77
2021/07/09 22:14:24;;;;;;;14.38;11.30;;;;;17.60;101542.00;;;;10474140;28;20212;-78
2021/07/09 22:19:25;;;;;;;19.52;10.88;;;;;17.60;101533.00;;;;10458092;28;20204;-78
2021/07/09 22:24:28;;;;;;;14.43;10.38;;;;;17.60;101526.00;;;;10453823;28;20201;-78
2021/07/09 22:29:30;;;;;;;14.17;10.67;;;;;17.60;101525.00;;;;10448260;28;20236;-78
2021/07/09 22:34:32;;;;;;;12.30;9.97;;;;;17.50;101531.00;;;;10415427;28;20312;-78
2021/07/09 22:39:35;;;;;;;16.27;11.13;;;;;17.40;101526.00;;;;10448623;28;20252;-77
2021/07/09 22:44:37;;;;;;;13.57;10.57;;;;;17.30;101526.00;;;;10417491;28;20196;-77
2021/07/09 22:49:39;;;;;;;22.70;14.73;;;;;17.20;101512.00;;;;10501147;28;20196;-78
2021/07/09 22:54:41;;;;;;;22.87;15.63;;;;;17.10;101517.00;;;;10455788;28;20205;-78
2021/07/09 22:59:43;;;;;;;32.78;19.02;;;;;17.00;101512.00;;;;10472365;28;20216;-78
2021/07/09 23:04:45;;;;;;;19.63;14.80;;;;;17.10;101516.00;;;;10456210;28;20695;-78
2021/07/09 23:09:47;;;;;;;12.13;10.37;;;;;17.10;101507.00;;;;10473299;28;20195;-77
2021/07/09 23:14:49;;;;;;;16.40;11.40;;;;;17.00;101506.00;;;;10471034;28;20243;-78
2021/07/09 23:19:51;;;;;;;16.20;11.30;;;;;16.80;101494.00;;;;10471446;28;20189;-79
2021/07/09 23:24:53;;;;;;;14.50;11.47;;;;;16.70;101492.00;;;;10454501;28;20189;-78
2021/07/09 23:29:55;;;;;;;14.77;11.17;;;;;16.60;101486.00;;;;10470053;28;20649;-78
2021/07/09 23:34:59;;;;;;;18.80;12.17;;;;;16.60;101476.00;;;;10453730;28;21046;-78
2021/07/09 23:40:03;;;;;;;15.63;12.70;;;;;16.60;101469.00;;;;10454456;28;20537;-78
2021/07/09 23:45:07;;;;;;;17.20;11.37;;;;;16.60;101472.00;;;;10486428;28;20197;-78
2021/07/09 23:50:09;;;;;;;15.87;13.37;;;;;16.50;101465.00;;;;10470340;28;20249;-78
2021/07/09 23:55:12;;;;;;;18.83;13.83;;;;;16.40;101464.00;;;;10429934;28;20292;-78
